createdAt,value
2022-11-24T00:00:58.991Z,53.30
2022-11-24T00:01:58.976Z,54.30
2022-11-24T00:02:58.953Z,45.40
2022-11-24T00:03:58.855Z,47.80
2022-11-24T00:04:58.876Z,50.20
2022-11-24T00:05:58.852Z,44.60
2022-11-24T00:06:59.002Z,43.10
2022-11-24T00:07:58.836Z,61.30
2022-11-24T00:08:58.862Z,53.50
2022-11-24T00:09:58.818Z,49.80
2022-11-24T00:10:58.838Z,59.90
2022-11-24T00:11:58.809Z,47.60
2022-11-24T00:12:58.841Z,50.00
2022-11-24T00:13:58.790Z,62.30
2022-11-24T00:14:58.815Z,49.10
2022-11-24T00:15:58.809Z,60.30
2022-11-24T00:16:58.878Z,48.10
2022-11-24T00:17:58.823Z,48.40
2022-11-24T00:18:58.830Z,44.30
2022-11-24T00:19:58.766Z,47.20
2022-11-24T00:20:58.787Z,55.80
2022-11-24T00:21:58.735Z,46.30
2022-11-24T00:22:58.744Z,51.90
2022-11-24T00:23:58.714Z,42.80
2022-11-24T00:24:58.879Z,53.30
2022-11-24T00:25:58.696Z,45.70
2022-11-24T00:26:58.702Z,41.60
2022-11-24T00:27:58.689Z,47.10
2022-11-24T00:28:58.864Z,49.70
2022-11-24T00:29:58.667Z,50.60
2022-11-24T00:30:58.858Z,52.60
2022-11-24T00:31:58.634Z,52.60
2022-11-24T00:32:58.691Z,50.10
2022-11-24T00:33:58.636Z,50.30
2022-11-24T00:34:58.642Z,51.90
2022-11-24T00:35:58.612Z,53.70
2022-11-24T00:36:58.714Z,49.10
2022-11-24T00:37:58.638Z,43.20
2022-11-24T00:38:59.209Z,50.40
2022-11-24T00:39:58.612Z,49.60
2022-11-24T00:40:58.591Z,58.40
2022-11-24T00:41:58.548Z,34.60
2022-11-24T00:42:58.666Z,49.20
2022-11-24T00:43:58.546Z,53.10
2022-11-24T00:44:58.522Z,54.00
2022-11-24T00:45:58.631Z,45.40
2022-11-24T00:46:58.607Z,39.20
2022-11-24T00:47:58.476Z,43.90
2022-11-24T00:48:58.592Z,45.30
2022-11-24T00:49:58.460Z,47.30
2022-11-24T00:50:58.430Z,37.50
2022-11-24T00:51:58.413Z,39.90
2022-11-24T00:52:58.410Z,43.10
2022-11-24T00:53:58.387Z,46.90
2022-11-24T00:54:58.431Z,44.00
2022-11-24T00:55:58.390Z,45.90
2022-11-24T00:56:58.409Z,43.80
2022-11-24T00:57:58.370Z,46.50
2022-11-24T00:58:58.361Z,49.70
2022-11-24T00:59:58.344Z,41.10
2022-11-24T01:00:58.439Z,40.10
2022-11-24T01:01:58.357Z,47.70
2022-11-24T01:02:58.911Z,43.60
2022-11-24T01:03:58.321Z,53.50
2022-11-24T01:04:58.354Z,53.20
2022-11-24T01:05:58.330Z,41.40
2022-11-24T01:06:58.491Z,49.60
2022-11-24T01:07:58.304Z,45.50
2022-11-24T01:08:58.339Z,46.10
2022-11-24T01:09:58.306Z,45.10
2022-11-24T01:10:58.330Z,45.30
2022-11-24T01:11:58.340Z,41.40
2022-11-24T01:12:58.460Z,47.20
2022-11-24T01:13:58.311Z,45.20
2022-11-24T01:14:58.306Z,47.60
2022-11-24T01:15:58.346Z,42.30
2022-11-24T01:16:58.294Z,54.40
2022-11-24T01:17:58.263Z,48.70
2022-11-24T01:18:58.275Z,50.70
2022-11-24T01:19:58.239Z,51.70
2022-11-24T01:20:58.261Z,47.20
2022-11-24T01:21:58.212Z,50.80
2022-11-24T01:22:58.255Z,45.50
2022-11-24T01:23:58.185Z,46.40
2022-11-24T01:24:58.354Z,38.40
2022-11-24T01:25:58.168Z,39.60
2022-11-24T01:26:58.184Z,48.40
2022-11-24T01:27:58.150Z,40.80
2022-11-24T01:29:02.045Z,50.80
2022-11-24T01:30:06.091Z,46.70
2022-11-24T01:31:06.294Z,48.40
2022-11-24T01:32:06.118Z,45.50
2022-11-24T01:33:06.201Z,44.00
2022-11-24T01:34:06.071Z,45.20
2022-11-24T01:35:06.112Z,45.40
2022-11-24T01:36:06.091Z,40.90
2022-11-24T01:37:06.080Z,42.90
2022-11-24T01:38:06.009Z,41.60
2022-11-24T01:39:06.041Z,40.20
2022-11-24T01:40:05.977Z,44.90
2022-11-24T01:41:06.011Z,39.70
2022-11-24T01:42:05.973Z,44.90
2022-11-24T01:43:05.969Z,45.30
2022-11-24T01:44:06.094Z,45.80
2022-11-24T01:45:05.933Z,51.90
2022-11-24T01:46:05.952Z,42.20
2022-11-24T01:47:05.903Z,44.10
2022-11-24T01:48:05.886Z,43.70
2022-11-24T01:49:05.924Z,41.50
2022-11-24T01:50:05.856Z,45.20
2022-11-24T01:51:05.856Z,39.80
2022-11-24T01:52:05.837Z,47.50
2022-11-24T01:53:05.840Z,46.00
2022-11-24T01:54:05.837Z,40.80
2022-11-24T01:55:05.960Z,37.20
2022-11-24T01:56:05.806Z,40.50
2022-11-24T01:57:05.832Z,30.70
2022-11-24T01:58:05.822Z,40.10
2022-11-24T01:59:05.840Z,42.80
2022-11-24T02:00:05.784Z,32.60
2022-11-24T02:01:05.877Z,46.40
2022-11-24T02:02:05.875Z,43.80
2022-11-24T02:03:05.822Z,43.60
2022-11-24T02:04:05.734Z,42.20
2022-11-24T02:05:05.763Z,40.70
2022-11-24T02:07:59.757Z,42.80
2022-11-24T02:08:59.732Z,49.00
2022-11-24T02:09:59.717Z,35.30
2022-11-24T02:10:59.742Z,35.30
2022-11-24T02:11:59.678Z,37.10
2022-11-24T02:12:59.692Z,38.20
2022-11-24T02:13:59.659Z,36.50
2022-11-24T02:14:59.685Z,41.50
2022-11-24T02:15:59.703Z,32.30
2022-11-24T02:16:59.775Z,39.40
2022-11-24T02:17:59.642Z,38.70
2022-11-24T02:18:59.669Z,44.80
2022-11-24T02:19:59.633Z,43.00
2022-11-24T02:20:59.648Z,33.40
2022-11-24T02:21:59.609Z,41.60
2022-11-24T02:22:59.728Z,39.70
2022-11-24T02:23:59.594Z,36.60
2022-11-24T02:24:59.614Z,36.10
2022-11-24T02:25:59.579Z,35.30
2022-11-24T02:26:59.589Z,35.10
2022-11-24T02:27:59.566Z,45.40
2022-11-24T02:28:59.718Z,35.50
2022-11-24T02:29:59.645Z,38.40
2022-11-24T02:30:59.635Z,36.60
2022-11-24T02:31:59.505Z,34.50
2022-11-24T02:32:59.498Z,30.10
2022-11-24T02:33:59.475Z,38.60
2022-11-24T02:34:59.601Z,28.30
2022-11-24T02:35:59.452Z,37.20
2022-11-24T02:36:59.453Z,32.80
2022-11-24T02:37:59.441Z,35.40
2022-11-24T02:38:59.444Z,43.10
2022-11-24T02:39:59.440Z,40.80
2022-11-24T02:40:59.532Z,36.50
2022-11-24T02:41:59.394Z,33.00
2022-11-24T02:42:59.405Z,44.10
2022-11-24T02:43:59.357Z,35.60
2022-11-24T02:44:59.354Z,33.90
2022-11-24T02:45:59.424Z,36.40
2022-11-24T02:46:59.507Z,40.10
2022-11-24T02:47:59.298Z,40.90
2022-11-24T02:48:59.371Z,29.80
2022-11-24T02:49:59.316Z,32.40
2022-11-24T02:50:59.341Z,34.10
2022-11-24T02:51:59.364Z,35.90
2022-11-24T02:52:59.298Z,32.90
2022-11-24T02:53:59.249Z,36.50
2022-11-24T02:54:59.251Z,43.60
2022-11-24T02:56:03.183Z,41.50
2022-11-24T02:57:03.271Z,33.80
2022-11-24T02:58:03.403Z,38.80
2022-11-24T02:59:03.265Z,31.60
2022-11-24T03:00:03.237Z,34.20
2022-11-24T03:01:03.262Z,30.10
2022-11-24T03:02:03.451Z,36.10
2022-11-24T03:03:03.961Z,39.50
2022-11-24T03:04:03.231Z,37.60
2022-11-24T03:05:03.242Z,38.10
2022-11-24T03:06:03.288Z,25.80
2022-11-24T03:07:03.234Z,32.30
2022-11-24T03:08:03.207Z,41.10
2022-11-24T03:09:03.354Z,41.60
2022-11-24T03:10:03.196Z,39.20
2022-11-24T03:11:03.228Z,31.10
2022-11-24T03:12:03.180Z,33.90
2022-11-24T03:13:03.302Z,37.30
2022-11-24T03:14:03.182Z,31.00
2022-11-24T03:15:03.238Z,35.90
2022-11-24T03:16:03.258Z,35.70
2022-11-24T03:17:03.183Z,37.20
2022-11-24T03:18:03.184Z,33.10
2022-11-24T03:19:03.204Z,42.50
2022-11-24T03:20:04.949Z,35.70
2022-11-24T03:21:03.218Z,41.20
2022-11-24T03:22:03.164Z,34.50
2022-11-24T03:23:03.187Z,31.10
2022-11-24T03:24:03.168Z,34.40
2022-11-24T03:25:03.660Z,32.50
2022-11-24T03:26:03.143Z,36.90
2022-11-24T03:27:03.158Z,40.50
2022-11-24T03:28:03.120Z,31.20
2022-11-24T03:29:03.133Z,34.70
2022-11-24T03:30:03.119Z,39.30
2022-11-24T03:31:03.198Z,39.20
2022-11-24T03:32:03.099Z,29.80
2022-11-24T03:33:03.101Z,26.00
2022-11-24T03:34:03.057Z,39.80
2022-11-24T03:35:03.198Z,33.40
2022-11-24T03:36:03.063Z,36.70
2022-11-24T03:37:03.057Z,45.80
2022-11-24T03:38:03.082Z,39.50
2022-11-24T03:39:03.076Z,36.70
2022-11-24T03:40:03.025Z,33.80
2022-11-24T03:41:03.032Z,31.50
2022-11-24T03:42:02.994Z,34.70
2022-11-24T03:43:03.040Z,33.00
2022-11-24T03:44:03.002Z,49.20
2022-11-24T03:45:29.900Z,37.30
2022-11-24T03:46:03.078Z,45.20
2022-11-24T03:47:02.997Z,38.60
2022-11-24T03:48:02.997Z,32.90
2022-11-24T03:49:02.982Z,39.70
2022-11-24T03:50:02.962Z,33.80
2022-11-24T03:51:03.021Z,34.90
2022-11-24T03:52:07.775Z,42.00
2022-11-24T03:53:03.002Z,36.40
2022-11-24T03:54:02.980Z,42.30
2022-11-24T03:55:03.005Z,36.80
2022-11-24T03:56:02.984Z,33.90
2022-11-24T03:57:03.104Z,41.20
2022-11-24T03:58:02.952Z,35.50
2022-11-24T03:59:02.954Z,34.40
2022-11-24T04:00:02.948Z,32.40
2022-11-24T04:01:02.933Z,35.10
2022-11-24T04:02:02.981Z,39.40
2022-11-24T04:03:03.099Z,40.40
2022-11-24T04:04:02.930Z,36.50
2022-11-24T04:05:02.934Z,34.30
2022-11-24T04:06:02.918Z,38.70
2022-11-24T04:07:02.957Z,34.20
2022-11-24T04:08:03.076Z,39.10
2022-11-24T04:09:02.953Z,40.90
2022-11-24T04:10:02.978Z,35.30
2022-11-24T04:11:02.969Z,32.90
2022-11-24T04:12:02.941Z,37.00
2022-11-24T04:13:02.942Z,29.50
2022-11-24T04:14:02.932Z,36.70
2022-11-24T04:15:02.963Z,44.10
2022-11-24T04:16:02.944Z,39.70
2022-11-24T04:17:02.935Z,35.30
2022-11-24T04:18:02.911Z,37.20
2022-11-24T04:19:02.949Z,31.50
2022-11-24T04:20:02.905Z,37.80
2022-11-24T04:21:03.030Z,36.30
2022-11-24T04:22:02.911Z,37.30
2022-11-24T04:23:02.919Z,30.90
2022-11-24T04:24:02.903Z,36.60
2022-11-24T04:25:02.923Z,43.40
2022-11-24T04:26:02.928Z,35.90
2022-11-24T04:27:03.046Z,35.50
2022-11-24T04:28:02.915Z,35.20
2022-11-24T04:29:02.941Z,32.60
2022-11-24T04:30:03.011Z,40.20
2022-11-24T04:31:02.993Z,35.90
2022-11-24T04:32:02.892Z,38.70
2022-11-24T04:33:02.964Z,35.70
2022-11-24T04:34:02.892Z,35.00
2022-11-24T04:35:02.902Z,39.90
2022-11-24T04:36:02.888Z,38.30
2022-11-24T04:37:02.905Z,37.40
2022-11-24T04:38:02.913Z,37.40
2022-11-24T04:39:24.142Z,39.10
2022-11-24T04:40:02.868Z,42.80
2022-11-24T04:41:02.926Z,39.40
2022-11-24T04:42:02.866Z,42.40
2022-11-24T04:43:02.915Z,34.50
2022-11-24T04:44:02.872Z,37.30
2022-11-24T04:45:02.899Z,41.90
2022-11-24T04:46:02.864Z,34.30
2022-11-24T04:47:02.946Z,34.40
2022-11-24T04:48:02.845Z,34.30
2022-11-24T04:49:02.864Z,37.60
2022-11-24T04:50:02.873Z,36.80
2022-11-24T04:51:03.012Z,41.10
2022-11-24T04:52:02.877Z,38.30
2022-11-24T04:53:02.863Z,33.50
2022-11-24T04:54:02.840Z,47.20
2022-11-24T04:55:02.863Z,41.10
2022-11-24T04:56:02.810Z,47.00
2022-11-24T04:57:02.836Z,42.30
2022-11-24T04:58:02.818Z,42.80
2022-11-24T04:59:07.861Z,41.50
2022-11-24T05:00:02.767Z,45.70
2022-11-24T05:01:02.754Z,42.10
2022-11-24T05:02:02.775Z,48.80
2022-11-24T05:03:02.772Z,45.00
2022-11-24T05:04:02.823Z,40.60
2022-11-24T05:05:02.743Z,38.50
2022-11-24T05:06:02.722Z,41.00
2022-11-24T05:07:02.733Z,40.50
2022-11-24T05:08:02.780Z,42.30
2022-11-24T05:09:02.753Z,43.70
2022-11-24T05:10:03.423Z,39.50
2022-11-24T05:11:08.630Z,36.70
2022-11-24T05:12:08.728Z,44.60
2022-11-24T05:13:08.754Z,41.90
2022-11-24T05:14:08.740Z,42.90
2022-11-24T05:15:09.178Z,33.50
2022-11-24T05:16:08.767Z,47.50
2022-11-24T05:17:08.702Z,41.70
2022-11-24T05:18:08.717Z,40.60
2022-11-24T05:19:08.733Z,43.60
2022-11-24T05:20:08.744Z,46.60
2022-11-24T05:21:08.685Z,43.90
2022-11-24T05:22:08.723Z,36.10
2022-11-24T05:23:08.716Z,36.50
2022-11-24T05:24:08.878Z,38.30
2022-11-24T05:25:08.752Z,41.00
2022-11-24T05:26:08.731Z,40.80
2022-11-24T05:27:08.696Z,43.90
2022-11-24T05:28:08.725Z,39.00
2022-11-24T05:29:08.709Z,41.10
2022-11-24T05:30:08.712Z,40.60
2022-11-24T05:31:08.850Z,35.30
2022-11-24T05:32:08.726Z,41.70
2022-11-24T05:33:08.708Z,44.40
2022-11-24T05:34:08.727Z,40.40
2022-11-24T05:35:08.876Z,39.50
2022-11-24T05:36:08.723Z,36.00
2022-11-24T05:37:08.832Z,50.00
2022-11-24T05:38:08.714Z,42.20
2022-11-24T05:39:08.699Z,42.20
2022-11-24T05:40:08.731Z,40.90
2022-11-24T05:41:08.687Z,30.30
2022-11-24T05:42:08.708Z,33.00
2022-11-24T05:43:08.706Z,32.60
2022-11-24T05:44:08.721Z,44.10
2022-11-24T05:45:08.689Z,32.90
2022-11-24T05:46:08.711Z,29.30
2022-11-24T05:47:08.768Z,41.50
2022-11-24T05:48:08.688Z,28.80
2022-11-24T05:49:08.700Z,44.20
2022-11-24T05:50:08.691Z,32.90
2022-11-24T05:51:09.568Z,35.30
2022-11-24T05:52:08.704Z,33.90
2022-11-24T05:53:08.675Z,28.70
2022-11-24T05:54:08.701Z,37.10
2022-11-24T05:55:08.778Z,32.90
2022-11-24T05:56:08.691Z,34.20
2022-11-24T05:57:08.795Z,29.00
2022-11-24T05:58:08.702Z,31.00
2022-11-24T05:59:10.090Z,29.40
2022-11-24T06:00:08.704Z,31.50
2022-11-24T06:01:08.694Z,29.40
2022-11-24T06:02:08.805Z,34.00
2022-11-24T06:03:08.842Z,31.60
2022-11-24T06:04:08.682Z,33.00
2022-11-24T06:05:08.676Z,27.70
2022-11-24T06:06:08.672Z,29.80
2022-11-24T06:07:08.809Z,24.70
2022-11-24T06:08:08.690Z,33.00
2022-11-24T06:09:08.637Z,32.20
2022-11-24T06:10:08.645Z,26.10
2022-11-24T06:11:08.636Z,23.60
2022-11-24T06:12:13.562Z,25.70
2022-11-24T06:13:19.578Z,30.60
2022-11-24T06:14:19.649Z,26.10
2022-11-24T06:15:19.631Z,27.10
2022-11-24T06:16:19.736Z,25.10
2022-11-24T06:17:19.772Z,27.10
2022-11-24T06:18:24.557Z,24.90
2022-11-24T06:19:24.672Z,20.70
2022-11-24T06:20:29.686Z,23.80
2022-11-24T06:21:24.624Z,21.10
2022-11-24T06:22:24.628Z,21.50
2022-11-24T06:23:24.628Z,26.90
2022-11-24T06:24:24.598Z,24.90
2022-11-24T06:25:24.602Z,21.40
2022-11-24T06:26:24.610Z,21.50
2022-11-24T06:27:24.593Z,21.00
2022-11-24T06:28:24.692Z,24.10
2022-11-24T06:29:24.608Z,23.50
2022-11-24T06:32:18.484Z,17.30
2022-11-24T06:33:18.585Z,19.70
2022-11-24T06:34:18.695Z,21.90
2022-11-24T06:35:18.577Z,22.90
2022-11-24T06:36:18.554Z,18.30
2022-11-24T06:37:18.598Z,20.80
2022-11-24T06:38:24.118Z,19.70
2022-11-24T06:39:18.625Z,24.80
2022-11-24T06:40:18.691Z,20.30
2022-11-24T06:41:18.648Z,20.60
2022-11-24T06:42:18.602Z,14.20
2022-11-24T06:43:18.614Z,16.60
2022-11-24T06:44:18.611Z,20.10
2022-11-24T06:45:23.532Z,19.30
2022-11-24T06:46:23.722Z,15.10
2022-11-24T06:47:23.610Z,13.40
2022-11-24T06:48:23.613Z,13.50
2022-11-24T06:49:23.772Z,17.90
2022-11-24T06:50:25.236Z,13.00
2022-11-24T06:51:23.608Z,16.20
2022-11-24T06:52:23.629Z,14.40
2022-11-24T06:53:23.619Z,18.20
2022-11-24T06:54:23.612Z,15.90
2022-11-24T06:55:23.593Z,11.10
2022-11-24T06:56:23.630Z,14.70
2022-11-24T06:57:23.618Z,15.80
2022-11-24T06:58:23.628Z,13.00
2022-11-24T06:59:23.628Z,13.40
2022-11-24T07:00:23.773Z,17.40
2022-11-24T07:01:23.777Z,12.60
2022-11-24T07:02:23.753Z,16.50
2022-11-24T07:03:23.711Z,16.20
2022-11-24T07:04:23.626Z,13.30
2022-11-24T07:05:23.597Z,14.40
2022-11-24T07:06:23.627Z,17.40
2022-11-24T07:07:23.627Z,15.10
2022-11-24T07:08:24.156Z,16.00
2022-11-24T07:09:28.537Z,15.40
2022-11-24T07:10:28.701Z,13.40
2022-11-24T07:11:28.623Z,15.20
2022-11-24T07:12:28.601Z,12.30
2022-11-24T07:13:28.745Z,14.00
2022-11-24T07:14:28.609Z,16.30
2022-11-24T07:15:28.627Z,14.60
2022-11-24T07:16:28.728Z,12.10
2022-11-24T07:17:28.630Z,13.40
2022-11-24T07:18:28.604Z,14.90
2022-11-24T07:19:28.739Z,15.40
2022-11-24T07:20:28.683Z,11.30
2022-11-24T07:21:28.651Z,15.50
2022-11-24T07:22:28.629Z,15.50
2022-11-24T07:23:28.638Z,13.70
2022-11-24T07:24:28.633Z,14.00
2022-11-24T07:25:28.674Z,11.40
2022-11-24T07:26:28.641Z,17.30
2022-11-24T07:27:28.666Z,15.80
2022-11-24T07:28:28.635Z,15.90
2022-11-24T07:29:28.641Z,17.00
2022-11-24T07:30:28.868Z,14.40
2022-11-24T07:31:28.727Z,17.00
2022-11-24T07:32:28.614Z,15.70
2022-11-24T07:33:28.657Z,17.60
2022-11-24T07:34:28.611Z,16.00
2022-11-24T07:35:28.654Z,18.80
2022-11-24T07:36:28.640Z,18.20
2022-11-24T07:37:31.680Z,17.80
2022-11-24T07:38:28.642Z,18.00
2022-11-24T07:39:33.529Z,16.50
2022-11-24T07:40:33.691Z,16.40
2022-11-24T07:41:33.640Z,20.70
2022-11-24T07:42:33.781Z,20.40
2022-11-24T07:43:33.639Z,19.00
2022-11-24T07:44:33.989Z,20.30
2022-11-24T07:45:33.715Z,17.80
2022-11-24T07:46:33.652Z,22.00
2022-11-24T07:47:33.627Z,18.30
2022-11-24T07:48:33.666Z,20.30
2022-11-24T07:49:33.616Z,23.30
2022-11-24T07:50:33.635Z,19.20
2022-11-24T07:51:33.778Z,17.80
2022-11-24T07:52:33.629Z,17.30
2022-11-24T07:53:33.610Z,21.70
2022-11-24T07:54:33.947Z,21.60
2022-11-24T07:55:33.600Z,22.80
2022-11-24T07:56:33.620Z,27.90
2022-11-24T07:57:33.602Z,23.80
2022-11-24T07:58:33.623Z,19.10
2022-11-24T07:59:33.591Z,23.10
2022-11-24T08:00:33.751Z,22.50
2022-11-24T08:01:33.660Z,21.50
2022-11-24T08:02:33.718Z,24.70
2022-11-24T08:03:33.668Z,25.00
2022-11-24T08:04:33.956Z,23.90
2022-11-24T08:05:33.611Z,26.20
2022-11-24T08:06:39.773Z,19.60
2022-11-24T08:07:33.693Z,25.20
2022-11-24T08:08:33.641Z,29.20
2022-11-24T08:09:33.618Z,27.70
2022-11-24T08:10:33.634Z,20.90
2022-11-24T08:11:33.625Z,23.80
2022-11-24T08:12:33.776Z,22.90
2022-11-24T08:13:33.736Z,24.00
2022-11-24T08:14:34.019Z,22.70
2022-11-24T08:15:33.623Z,25.50
2022-11-24T08:16:33.708Z,30.00
2022-11-24T08:17:33.618Z,25.90
2022-11-24T08:18:33.673Z,31.20
2022-11-24T08:19:33.630Z,22.00
2022-11-24T08:20:33.652Z,26.50
2022-11-24T08:21:33.647Z,28.30
2022-11-24T08:22:33.656Z,23.80
2022-11-24T08:23:33.640Z,28.60
2022-11-24T08:24:33.982Z,26.30
2022-11-24T08:25:33.646Z,29.20
2022-11-24T08:26:33.670Z,26.00
2022-11-24T08:27:33.651Z,30.50
2022-11-24T08:28:33.658Z,26.40
2022-11-24T08:29:33.611Z,31.90
2022-11-24T08:30:33.650Z,30.40
2022-11-24T08:31:34.048Z,31.40
2022-11-24T08:32:33.619Z,32.40
2022-11-24T08:33:33.597Z,38.30
2022-11-24T08:34:33.869Z,32.50
2022-11-24T08:35:33.626Z,38.30
2022-11-24T08:36:33.731Z,30.20
2022-11-24T08:37:33.605Z,29.30
2022-11-24T08:38:33.637Z,31.00
2022-11-24T08:39:33.615Z,40.60
2022-11-24T08:40:33.644Z,32.80
2022-11-24T08:41:33.630Z,33.80
2022-11-24T08:42:33.685Z,34.70
2022-11-24T08:43:33.627Z,35.10
2022-11-24T08:44:34.093Z,35.00
2022-11-24T08:45:39.740Z,33.30
2022-11-24T08:46:38.728Z,28.80
2022-11-24T08:47:38.769Z,30.00
2022-11-24T08:48:38.631Z,34.60
2022-11-24T08:49:38.633Z,32.80
2022-11-24T08:50:38.599Z,34.40
2022-11-24T08:51:38.622Z,42.00
2022-11-24T08:52:38.615Z,40.20
2022-11-24T08:53:43.595Z,34.10
2022-11-24T08:54:43.605Z,31.60
2022-11-24T08:55:43.602Z,30.80
2022-11-24T08:56:43.741Z,37.30
2022-11-24T08:57:43.583Z,36.10
2022-11-24T08:58:49.672Z,34.00
2022-11-24T08:59:49.595Z,36.30
2022-11-24T09:00:49.574Z,34.50
2022-11-24T09:01:49.711Z,35.30
2022-11-24T09:02:49.594Z,36.10
2022-11-24T09:03:51.092Z,32.00
2022-11-24T09:04:49.648Z,29.40
2022-11-24T09:05:52.497Z,28.70
2022-11-24T09:06:49.753Z,31.30
2022-11-24T09:07:49.692Z,28.80
2022-11-24T09:08:49.598Z,34.10
2022-11-24T09:09:49.608Z,31.70
2022-11-24T09:10:49.585Z,37.20
2022-11-24T09:11:49.594Z,35.90
2022-11-24T09:12:49.576Z,32.30
2022-11-24T09:13:49.639Z,28.40
2022-11-24T09:14:49.581Z,32.40
2022-11-24T09:15:49.736Z,28.80
2022-11-24T09:16:49.655Z,31.20
2022-11-24T09:17:49.745Z,31.60
2022-11-24T09:18:49.576Z,29.90
2022-11-24T09:19:49.595Z,28.90
2022-11-24T09:20:49.577Z,29.80
2022-11-24T09:21:49.729Z,29.10
2022-11-24T09:22:49.570Z,31.00
2022-11-24T09:23:49.585Z,32.40
2022-11-24T09:24:49.562Z,32.80
2022-11-24T09:25:49.583Z,28.90
2022-11-24T09:26:49.585Z,25.70
2022-11-24T09:27:49.707Z,34.40
2022-11-24T09:28:49.597Z,26.90
2022-11-24T09:29:49.585Z,33.50
2022-11-24T09:30:49.641Z,30.00
2022-11-24T09:31:49.580Z,28.30
2022-11-24T09:32:49.567Z,30.40
2022-11-24T09:33:49.619Z,26.90
2022-11-24T09:34:49.571Z,26.30
2022-11-24T09:35:49.593Z,26.80
2022-11-24T09:36:49.569Z,28.00
2022-11-24T09:37:49.581Z,29.70
2022-11-24T09:38:49.561Z,27.10
2022-11-24T09:39:49.689Z,23.70
2022-11-24T09:40:49.562Z,29.10
2022-11-24T09:41:49.606Z,26.40
2022-11-24T09:42:53.555Z,29.10
2022-11-24T09:43:49.628Z,27.10
2022-11-24T09:44:49.587Z,26.40
2022-11-24T09:46:04.987Z,24.20
2022-11-24T09:46:49.634Z,24.70
2022-11-24T09:47:49.604Z,29.20
2022-11-24T09:48:49.606Z,29.80
2022-11-24T09:49:51.404Z,27.60
2022-11-24T09:50:49.733Z,28.20
2022-11-24T09:51:49.705Z,30.10
2022-11-24T09:52:49.581Z,23.80
2022-11-24T09:53:49.592Z,32.70
2022-11-24T09:54:49.564Z,30.60
2022-11-24T09:55:54.460Z,26.80
2022-11-24T09:56:54.596Z,23.80
2022-11-24T09:57:54.565Z,31.70
2022-11-24T09:58:54.614Z,29.70
2022-11-24T09:59:54.593Z,26.50
2022-11-24T10:00:54.785Z,26.60
2022-11-24T10:01:54.651Z,29.90
2022-11-24T10:02:59.499Z,30.60
2022-11-24T10:04:05.646Z,28.30
2022-11-24T10:04:59.645Z,23.80
2022-11-24T10:05:59.592Z,29.50
2022-11-24T10:06:59.585Z,30.90
2022-11-24T10:07:59.778Z,31.20
2022-11-24T10:08:59.575Z,29.20
2022-11-24T10:10:00.160Z,29.30
2022-11-24T10:10:59.626Z,29.90
2022-11-24T10:11:59.602Z,28.50
2022-11-24T10:12:59.579Z,33.20
2022-11-24T10:13:59.727Z,28.90
2022-11-24T10:14:59.554Z,31.80
2022-11-24T10:15:59.726Z,28.50
2022-11-24T10:16:59.562Z,32.10
2022-11-24T10:17:59.593Z,25.20
2022-11-24T10:18:59.571Z,33.00
2022-11-24T10:19:59.705Z,31.90
2022-11-24T10:20:59.579Z,30.80
2022-11-24T10:21:59.770Z,29.00
2022-11-24T10:22:59.601Z,34.10
2022-11-24T10:23:59.624Z,30.10
2022-11-24T10:24:59.629Z,28.40
2022-11-24T10:25:59.721Z,29.50
2022-11-24T10:26:59.623Z,28.10
2022-11-24T10:27:59.636Z,30.10
2022-11-24T10:28:59.618Z,30.00
2022-11-24T10:29:59.642Z,33.20
2022-11-24T10:30:59.669Z,31.30
2022-11-24T10:31:59.693Z,32.30
2022-11-24T10:32:59.778Z,27.50
2022-11-24T10:33:59.677Z,28.80
2022-11-24T10:34:59.687Z,27.60
2022-11-24T10:35:59.694Z,28.90
2022-11-24T10:36:59.755Z,31.10
2022-11-24T10:37:59.689Z,30.70
2022-11-24T10:38:59.668Z,29.70
2022-11-24T10:40:00.291Z,27.40
2022-11-24T10:40:59.818Z,29.10
2022-11-24T10:41:59.703Z,25.30
2022-11-24T10:42:59.831Z,25.00
2022-11-24T10:45:05.740Z,28.20
2022-11-24T10:46:05.823Z,28.40
2022-11-24T10:47:05.725Z,23.90
2022-11-24T10:48:05.787Z,31.90
2022-11-24T10:49:06.723Z,28.80
2022-11-24T10:50:06.748Z,29.50
2022-11-24T10:51:06.765Z,35.10
2022-11-24T10:52:06.794Z,28.80
2022-11-24T10:53:06.868Z,26.80
2022-11-24T10:54:06.808Z,30.90
2022-11-24T10:57:00.858Z,27.10
2022-11-24T10:58:06.702Z,26.30
2022-11-24T10:59:06.836Z,31.50
2022-11-24T11:00:06.806Z,28.60
2022-11-24T11:01:06.936Z,30.00
2022-11-24T11:02:06.987Z,28.50
2022-11-24T11:03:06.955Z,25.10
2022-11-24T11:04:06.835Z,30.70
2022-11-24T11:05:06.984Z,33.90
2022-11-24T11:06:06.869Z,29.80
2022-11-24T11:07:07.101Z,27.90
2022-11-24T11:08:06.897Z,22.80
2022-11-24T11:09:06.885Z,25.30
2022-11-24T11:10:06.867Z,30.90
2022-11-24T11:11:11.917Z,24.30
2022-11-24T11:12:36.214Z,27.90
2022-11-24T11:13:11.875Z,28.30
2022-11-24T11:14:11.897Z,24.50
2022-11-24T11:15:11.878Z,27.40
2022-11-24T11:16:12.089Z,24.20
2022-11-24T11:17:12.039Z,30.40
2022-11-24T11:18:16.855Z,29.30
2022-11-24T11:19:47.513Z,22.80
2022-11-24T11:20:16.948Z,29.40
2022-11-24T11:21:17.040Z,22.60
2022-11-24T11:22:16.956Z,25.80
2022-11-24T11:23:22.854Z,24.60
2022-11-24T11:24:22.967Z,34.30
2022-11-24T11:25:22.961Z,30.00
2022-11-24T11:26:23.009Z,28.70
2022-11-24T11:27:22.999Z,27.30
2022-11-24T11:28:26.913Z,26.30
2022-11-24T11:31:27.046Z,25.10
2022-11-24T11:34:30.310Z,30.90
2022-11-24T11:35:27.132Z,26.10
2022-11-24T11:36:27.178Z,34.20
2022-11-24T11:37:27.202Z,27.10
2022-11-24T11:38:27.097Z,29.90
2022-11-24T11:39:27.110Z,24.30
2022-11-24T11:40:27.093Z,30.60
2022-11-24T11:41:27.140Z,28.80
2022-11-24T11:43:00.290Z,26.20
2022-11-24T11:43:27.132Z,18.60
2022-11-24T11:44:27.133Z,25.90
2022-11-24T11:45:27.204Z,25.50
2022-11-24T11:46:27.217Z,25.60
2022-11-24T11:47:27.166Z,38.00
2022-11-24T11:48:27.305Z,29.50
2022-11-24T11:49:27.192Z,25.50
2022-11-24T11:50:27.239Z,29.40
2022-11-24T11:51:27.231Z,27.70
2022-11-24T11:52:27.213Z,23.70
2022-11-24T11:53:27.220Z,35.40
2022-11-24T11:54:27.318Z,29.50
2022-11-24T11:55:27.236Z,27.30
2022-11-24T11:56:27.215Z,26.50
2022-11-24T11:57:27.225Z,26.50
2022-11-24T11:58:27.216Z,24.80
2022-11-24T11:59:27.333Z,30.40
2022-11-24T12:00:27.334Z,29.50
2022-11-24T12:01:27.298Z,24.40
2022-11-24T12:02:27.355Z,34.40
2022-11-24T12:03:27.353Z,34.00
2022-11-24T12:04:27.240Z,26.70
2022-11-24T12:05:27.241Z,34.40
2022-11-24T12:06:27.318Z,35.20
2022-11-24T12:07:27.668Z,30.70
2022-11-24T12:08:49.603Z,29.80
2022-11-24T12:09:33.589Z,40.50
2022-11-24T12:10:33.242Z,32.30
2022-11-24T12:11:33.447Z,28.80
2022-11-24T12:12:33.264Z,27.10
2022-11-24T12:13:33.277Z,32.30
2022-11-24T12:14:33.252Z,27.30
2022-11-24T12:15:33.292Z,33.10
2022-11-24T12:16:33.322Z,30.60
2022-11-24T12:17:33.407Z,34.00
2022-11-24T12:18:56.692Z,22.90
2022-11-24T12:19:33.713Z,38.70
2022-11-24T12:20:33.313Z,42.90
2022-11-24T12:21:33.318Z,39.50
2022-11-24T12:22:33.306Z,29.00
2022-11-24T12:23:33.440Z,33.60
2022-11-24T12:24:33.379Z,28.00
2022-11-24T12:25:33.369Z,33.10
2022-11-24T12:26:33.349Z,35.50
2022-11-24T12:27:33.391Z,31.80
2022-11-24T12:28:33.369Z,39.30
2022-11-24T12:29:33.871Z,28.00
2022-11-24T12:30:33.465Z,36.50
2022-11-24T12:31:33.553Z,31.80
2022-11-24T12:32:33.443Z,30.20
2022-11-24T12:33:38.453Z,31.50
2022-11-24T12:34:38.629Z,36.90
2022-11-24T12:35:43.379Z,34.20
2022-11-24T12:36:43.539Z,33.10
2022-11-24T12:37:43.543Z,41.10
2022-11-24T12:38:43.572Z,38.40
2022-11-24T12:39:43.669Z,28.90
2022-11-24T12:40:49.506Z,39.60
2022-11-24T12:41:49.652Z,31.50
2022-11-24T12:42:49.614Z,38.40
2022-11-24T12:43:49.657Z,30.30
2022-11-24T12:44:49.665Z,36.50
2022-11-24T12:45:49.687Z,37.90
2022-11-24T12:46:49.726Z,37.70
2022-11-24T12:47:49.734Z,33.20
2022-11-24T12:48:49.706Z,29.50
2022-11-24T12:49:49.838Z,36.10
2022-11-24T12:50:49.782Z,31.90
2022-11-24T12:51:49.789Z,42.10
2022-11-24T12:52:54.119Z,34.90
2022-11-24T12:53:49.820Z,32.10
2022-11-24T12:54:49.820Z,34.60
2022-11-24T12:55:49.975Z,39.10
2022-11-24T12:56:49.867Z,36.60
2022-11-24T12:57:54.803Z,38.60
2022-11-24T12:58:54.935Z,34.50
2022-11-24T12:59:54.945Z,40.90
2022-11-24T13:00:55.004Z,39.70
2022-11-24T13:01:55.068Z,28.40
2022-11-24T13:02:55.196Z,28.70
2022-11-24T13:03:55.005Z,42.20
2022-11-24T13:04:55.061Z,32.30
2022-11-24T13:05:55.062Z,43.20